Aviation Digital Data Service (ADDS)

Output produced by METARs form (1647 UTC 30 October 2020)
found at http://www.aviationweather.gov/metar/data/
 
KHSV 301553Z 01010KT 10SM OVC026 10/04 A3026 RMK AO2 SLP245 T01000044
KHSV 301120Z 3012/3112 35010KT P6SM OVC010 
     FM301500 36012G17KT P6SM FEW015 SCT050 
     FM302000 01011KT P6SM SCT250 
     FM310000 03006KT P6SM SKC